createdAt,value
2019-05-19T00:01:36.782Z,54.40
2019-05-19T00:04:06.395Z,51.68
2019-05-19T00:06:35.963Z,49.13
2019-05-19T00:09:06.643Z,53.02
2019-05-19T00:14:04.878Z,54.20
2019-05-19T00:16:34.454Z,53.50
2019-05-19T00:19:03.973Z,60.55
2019-05-19T00:21:33.460Z,61.45
2019-05-19T00:24:02.933Z,60.15
2019-05-19T00:26:32.818Z,56.48
2019-05-19T00:29:02.438Z,58.50
2019-05-19T00:31:32.000Z,59.73
2019-05-19T00:34:01.581Z,57.85
2019-05-19T00:36:31.153Z,60.28
2019-05-19T00:39:00.600Z,61.63
2019-05-19T00:44:00.148Z,54.23
2019-05-19T00:46:29.793Z,54.80
2019-05-19T00:48:59.363Z,57.37
2019-05-19T00:51:29.311Z,59.83
2019-05-19T00:53:58.959Z,57.57
2019-05-19T00:56:28.866Z,54.42
2019-05-19T00:59:00.066Z,50.60
2019-05-19T01:01:29.525Z,57.33
2019-05-19T01:03:59.071Z,57.83
2019-05-19T01:06:28.527Z,49.95
2019-05-19T01:08:58.018Z,50.45
2019-05-19T01:11:27.533Z,56.55
2019-05-19T01:13:57.029Z,55.45
2019-05-19T01:16:26.917Z,64.12
2019-05-19T01:18:56.486Z,58.40
2019-05-19T01:21:26.713Z,57.58
2019-05-19T01:26:24.839Z,53.38
2019-05-19T01:28:54.385Z,54.77
2019-05-19T01:31:24.027Z,51.10
2019-05-19T01:33:54.008Z,51.77
2019-05-19T01:36:23.515Z,53.30
2019-05-19T01:38:53.024Z,56.85
2019-05-19T01:41:22.564Z,57.60
2019-05-19T01:43:52.113Z,54.15
2019-05-19T01:46:21.659Z,56.95
2019-05-19T01:48:51.125Z,57.30
2019-05-19T01:51:20.650Z,61.15
2019-05-19T01:53:50.143Z,62.20
2019-05-19T01:56:19.700Z,63.08
2019-05-19T01:58:49.100Z,66.33
2019-05-19T02:01:18.732Z,67.72
2019-05-19T02:03:48.240Z,75.80
2019-05-19T02:06:17.943Z,73.25
2019-05-19T02:08:47.552Z,70.03
2019-05-19T02:11:17.019Z,64.82
2019-05-19T02:13:46.515Z,68.07
2019-05-19T02:16:16.110Z,65.10
2019-05-19T02:18:45.718Z,62.13
2019-05-19T02:21:15.210Z,65.00
2019-05-19T02:23:44.726Z,61.65
2019-05-19T02:26:14.264Z,66.00
2019-05-19T02:28:44.730Z,62.73
2019-05-19T02:31:14.209Z,69.20
2019-05-19T02:33:43.768Z,69.17
2019-05-19T02:36:14.577Z,63.78
2019-05-19T02:41:17.180Z,60.75
2019-05-19T02:43:48.030Z,63.05
2019-05-19T02:48:47.005Z,66.80
2019-05-19T02:51:18.942Z,66.82
2019-05-19T02:53:49.716Z,63.70
2019-05-19T02:56:20.962Z,62.98
2019-05-19T02:58:51.031Z,69.45
2019-05-19T03:01:20.602Z,72.17
2019-05-19T03:03:50.114Z,72.82
2019-05-19T03:06:19.672Z,70.17
2019-05-19T03:08:49.329Z,68.80
2019-05-19T03:11:18.846Z,69.32
2019-05-19T03:13:48.301Z,68.23
2019-05-19T03:16:18.877Z,71.53
2019-05-19T03:18:48.350Z,80.47
2019-05-19T03:21:17.882Z,77.08
2019-05-19T03:23:47.345Z,72.97
2019-05-19T03:26:17.719Z,73.62
2019-05-19T03:28:47.170Z,70.37
2019-05-19T03:31:21.234Z,73.80
2019-05-19T03:33:53.590Z,76.85
2019-05-19T03:36:23.132Z,71.75
2019-05-19T03:38:52.581Z,70.23
2019-05-19T03:41:22.451Z,68.75
2019-05-19T03:43:52.012Z,70.27
2019-05-19T03:46:21.538Z,74.97
2019-05-19T03:48:51.150Z,71.80
2019-05-19T03:51:31.118Z,76.10
2019-05-19T03:53:51.858Z,75.37
2019-05-19T03:56:22.896Z,70.67
2019-05-19T03:58:54.096Z,74.67
2019-05-19T04:01:25.077Z,72.17
2019-05-19T04:03:54.689Z,67.10
2019-05-19T04:06:24.209Z,73.83
2019-05-19T04:08:53.653Z,65.35
2019-05-19T04:11:23.105Z,62.35
2019-05-19T04:13:52.625Z,66.97
2019-05-19T04:16:22.113Z,71.60
2019-05-19T04:18:51.631Z,68.97
2019-05-19T04:21:21.085Z,71.85
2019-05-19T04:23:52.175Z,76.70
2019-05-19T04:26:21.679Z,71.07
2019-05-19T04:28:51.170Z,72.97
2019-05-19T04:31:20.629Z,66.87
2019-05-19T04:33:50.200Z,71.90
2019-05-19T04:36:19.722Z,65.03
2019-05-19T04:38:49.286Z,68.50
2019-05-19T04:41:18.764Z,65.62
2019-05-19T04:43:49.895Z,65.20
2019-05-19T04:46:19.445Z,67.58
2019-05-19T04:48:49.130Z,65.50
2019-05-19T04:51:18.595Z,65.92
2019-05-19T04:53:48.117Z,70.60
2019-05-19T04:56:19.829Z,62.70
2019-05-19T04:58:48.926Z,66.67
2019-05-19T05:01:18.467Z,65.45
2019-05-19T05:03:48.200Z,67.00
2019-05-19T05:06:17.730Z,67.60
2019-05-19T05:08:47.190Z,66.57
2019-05-19T05:11:17.024Z,64.70
2019-05-19T05:13:46.530Z,69.03
2019-05-19T05:16:15.984Z,65.20
2019-05-19T05:18:47.862Z,67.47
2019-05-19T05:21:16.664Z,65.80
2019-05-19T05:23:46.719Z,63.42
2019-05-19T05:26:16.288Z,64.32
2019-05-19T05:28:45.746Z,66.53
2019-05-19T05:31:15.714Z,65.78
2019-05-19T05:33:46.604Z,60.88
2019-05-19T05:36:16.087Z,66.57
2019-05-19T05:38:45.572Z,65.83
2019-05-19T05:41:15.034Z,66.05
2019-05-19T05:43:45.211Z,66.73
2019-05-19T05:46:14.740Z,60.28
2019-05-19T05:48:44.237Z,58.78
2019-05-19T05:51:13.704Z,62.95
2019-05-19T05:53:44.816Z,54.70
2019-05-19T05:56:14.280Z,59.75
2019-05-19T05:58:43.786Z,59.38
2019-05-19T06:01:13.265Z,61.20
2019-05-19T06:03:42.840Z,60.45
2019-05-19T06:06:12.299Z,58.33
2019-05-19T06:08:41.881Z,64.27
2019-05-19T06:11:11.334Z,57.85
2019-05-19T06:13:40.842Z,58.58
2019-05-19T06:16:10.309Z,54.05
2019-05-19T06:18:39.893Z,54.15
2019-05-19T06:21:09.294Z,58.40
2019-05-19T06:23:38.785Z,53.85
2019-05-19T06:26:08.262Z,56.30
2019-05-19T06:28:37.806Z,58.55
2019-05-19T06:31:07.437Z,57.03
2019-05-19T06:33:36.963Z,56.17
2019-05-19T06:36:06.489Z,56.35
2019-05-19T06:38:38.755Z,55.90
2019-05-19T06:41:08.220Z,51.80
2019-05-19T06:43:37.997Z,51.37
2019-05-19T06:46:07.709Z,51.90
2019-05-19T06:48:37.222Z,53.70
2019-05-19T06:51:06.796Z,54.83
2019-05-19T06:53:36.423Z,53.10
2019-05-19T06:56:05.996Z,50.20
2019-05-19T06:58:35.461Z,51.20
2019-05-19T07:01:04.968Z,52.40
2019-05-19T07:03:34.444Z,50.07
2019-05-19T07:06:05.597Z,50.92
2019-05-19T07:08:35.224Z,48.52
2019-05-19T07:11:04.689Z,49.20
2019-05-19T07:13:34.329Z,50.50
2019-05-19T07:16:03.886Z,50.63
2019-05-19T07:18:34.382Z,46.77
2019-05-19T07:21:03.951Z,51.42
2019-05-19T07:23:34.353Z,51.98
2019-05-19T07:26:05.479Z,49.40
2019-05-19T07:28:36.032Z,51.10
2019-05-19T07:31:05.545Z,47.30
2019-05-19T07:33:35.189Z,46.75
2019-05-19T07:36:04.792Z,49.60
2019-05-19T07:38:34.309Z,45.33
2019-05-19T07:41:03.844Z,49.27
2019-05-19T07:43:33.353Z,50.40
2019-05-19T07:46:02.857Z,45.73
2019-05-19T07:48:32.346Z,42.97
2019-05-19T07:51:01.890Z,42.05
2019-05-19T07:53:42.308Z,43.93
2019-05-19T07:56:02.535Z,41.25
2019-05-19T07:58:32.016Z,40.83
2019-05-19T08:01:01.579Z,42.27
2019-05-19T08:03:30.963Z,42.48
2019-05-19T08:06:00.608Z,40.20
2019-05-19T08:08:30.138Z,39.45
2019-05-19T08:11:01.162Z,40.05
2019-05-19T08:13:31.638Z,39.88
2019-05-19T08:16:01.886Z,38.67
2019-05-19T08:18:31.538Z,36.85
2019-05-19T08:21:00.994Z,37.25
2019-05-19T08:23:30.534Z,37.37
2019-05-19T08:26:00.036Z,37.60
2019-05-19T08:28:29.496Z,35.90
2019-05-19T08:30:59.143Z,36.65
2019-05-19T08:33:28.634Z,33.73
2019-05-19T08:35:58.591Z,35.88
2019-05-19T08:38:28.137Z,34.65
2019-05-19T08:40:57.684Z,33.63
2019-05-19T08:43:27.283Z,33.92
2019-05-19T08:45:58.911Z,34.55
2019-05-19T08:48:28.410Z,31.73
2019-05-19T08:50:57.982Z,29.27
2019-05-19T08:53:28.223Z,31.40
2019-05-19T08:55:57.810Z,33.18
2019-05-19T08:58:27.269Z,30.97
2019-05-19T09:00:56.675Z,30.72
2019-05-19T09:03:26.168Z,27.87
2019-05-19T09:05:55.674Z,29.10
2019-05-19T09:08:25.587Z,29.20
2019-05-19T09:10:55.121Z,30.15
2019-05-19T09:13:27.612Z,28.57
2019-05-19T09:15:57.090Z,27.22
2019-05-19T09:18:26.556Z,28.87
2019-05-19T09:20:56.162Z,28.55
2019-05-19T09:23:25.599Z,26.10
2019-05-19T09:25:55.506Z,26.70
2019-05-19T09:28:25.341Z,25.15
2019-05-19T09:30:55.125Z,25.25
2019-05-19T09:33:24.649Z,23.53
2019-05-19T09:35:54.271Z,28.02
2019-05-19T09:38:23.919Z,23.67
2019-05-19T09:40:53.431Z,25.23
2019-05-19T09:43:22.987Z,21.57
2019-05-19T09:45:52.501Z,20.85
2019-05-19T09:48:22.145Z,21.03
2019-05-19T09:50:51.661Z,22.22
2019-05-19T09:53:22.707Z,21.33
2019-05-19T09:55:52.521Z,21.35
2019-05-19T09:58:22.067Z,22.00
2019-05-19T10:00:53.970Z,23.07
2019-05-19T10:03:23.657Z,20.92
2019-05-19T10:05:54.291Z,20.97
2019-05-19T10:08:27.707Z,19.80
2019-05-19T10:11:09.222Z,22.25
2019-05-19T10:13:38.777Z,20.32
2019-05-19T10:16:08.346Z,19.17
2019-05-19T10:18:37.850Z,17.90
2019-05-19T10:21:07.469Z,17.97
2019-05-19T10:23:37.002Z,20.20
2019-05-19T10:26:06.573Z,18.80
2019-05-19T10:28:36.083Z,18.77
2019-05-19T10:31:05.629Z,19.30
2019-05-19T10:33:35.211Z,20.10
2019-05-19T10:36:04.604Z,17.87
2019-05-19T10:38:34.108Z,19.43
2019-05-19T10:41:03.573Z,15.20
2019-05-19T10:43:33.110Z,15.87
2019-05-19T10:46:02.830Z,15.25
2019-05-19T10:48:32.286Z,14.53
2019-05-19T10:51:01.815Z,16.53
2019-05-19T10:53:32.393Z,15.28
2019-05-19T10:56:01.834Z,13.97
2019-05-19T10:58:31.340Z,14.10
2019-05-19T11:01:00.844Z,11.97
2019-05-19T11:03:30.402Z,11.87
2019-05-19T11:05:59.909Z,13.18
2019-05-19T11:08:30.212Z,11.40
2019-05-19T11:11:00.693Z,13.83
2019-05-19T11:13:30.177Z,12.40
2019-05-19T11:15:59.754Z,10.67
2019-05-19T11:18:29.265Z,10.30
2019-05-19T11:20:59.806Z,8.93
2019-05-19T11:23:30.858Z,10.50
2019-05-19T11:26:00.357Z,9.05
2019-05-19T11:28:30.080Z,8.83
2019-05-19T11:30:59.570Z,8.58
2019-05-19T11:33:29.075Z,9.63
2019-05-19T11:35:58.629Z,10.80
2019-05-19T11:38:29.134Z,10.13
2019-05-19T11:40:58.655Z,11.47
2019-05-19T11:43:28.165Z,9.33
2019-05-19T11:46:00.618Z,10.87
2019-05-19T11:48:33.228Z,9.25
2019-05-19T11:51:02.820Z,11.10
2019-05-19T11:53:32.322Z,12.25
2019-05-19T11:56:07.178Z,13.45
2019-05-19T11:58:33.077Z,11.68
2019-05-19T12:01:02.520Z,11.20
2019-05-19T12:03:32.036Z,10.67
2019-05-19T12:06:01.529Z,12.43
2019-05-19T12:08:30.962Z,11.93
2019-05-19T12:11:00.461Z,13.20
2019-05-19T12:13:30.311Z,11.73
2019-05-19T12:15:59.883Z,10.85
2019-05-19T12:18:29.366Z,13.53
2019-05-19T12:20:58.910Z,11.57
2019-05-19T12:23:29.420Z,10.30
2019-05-19T12:25:59.060Z,10.48
2019-05-19T12:28:28.733Z,8.95
2019-05-19T12:30:58.258Z,7.53
2019-05-19T12:33:27.845Z,6.78
2019-05-19T12:35:57.375Z,7.60
2019-05-19T12:38:26.899Z,7.07
2019-05-19T12:40:57.409Z,6.60
2019-05-19T12:43:26.859Z,6.53
2019-05-19T12:45:56.382Z,6.50
2019-05-19T12:48:25.830Z,5.03
2019-05-19T12:50:55.409Z,5.17
2019-05-19T12:53:24.883Z,8.15
2019-05-19T12:55:54.456Z,6.75
2019-05-19T12:58:24.009Z,6.78
2019-05-19T13:00:53.498Z,6.03
2019-05-19T13:03:23.025Z,5.20
2019-05-19T13:05:54.076Z,6.20
2019-05-19T13:08:23.540Z,5.58
2019-05-19T13:10:53.110Z,5.03
2019-05-19T13:13:22.666Z,4.83
2019-05-19T13:15:52.238Z,5.70
2019-05-19T13:18:21.726Z,5.60
2019-05-19T13:20:51.305Z,4.97
2019-05-19T13:23:21.814Z,5.03
2019-05-19T13:25:55.028Z,5.30
2019-05-19T13:28:24.605Z,5.28
2019-05-19T13:30:54.168Z,4.80
2019-05-19T13:33:23.742Z,5.55
2019-05-19T13:35:53.248Z,4.62
2019-05-19T13:38:22.751Z,4.35
2019-05-19T13:40:52.464Z,5.83
2019-05-19T13:43:25.767Z,5.53
2019-05-19T13:45:53.242Z,5.03
2019-05-19T13:48:22.723Z,5.42
2019-05-19T13:50:52.275Z,5.33
2019-05-19T13:53:21.765Z,5.05
2019-05-19T13:55:51.161Z,5.05
2019-05-19T13:58:20.740Z,4.95
2019-05-19T14:00:50.198Z,6.03
2019-05-19T14:03:19.934Z,5.40
2019-05-19T14:05:49.465Z,5.50
2019-05-19T14:08:18.936Z,6.45
2019-05-19T14:11:09.375Z,8.30
2019-05-19T14:13:42.744Z,7.65
2019-05-19T14:16:12.402Z,6.30
2019-05-19T14:18:42.083Z,11.35
2019-05-19T14:21:11.607Z,18.23
2019-05-19T14:23:41.162Z,17.25
2019-05-19T14:26:10.682Z,18.57
2019-05-19T14:28:40.136Z,16.97
2019-05-19T14:31:09.629Z,17.43
2019-05-19T14:33:39.125Z,16.17
2019-05-19T14:36:08.669Z,19.17
2019-05-19T14:38:39.770Z,20.97
2019-05-19T14:41:09.297Z,23.40
2019-05-19T14:43:39.305Z,24.63
2019-05-19T14:46:09.121Z,23.85
2019-05-19T14:48:38.559Z,19.10
2019-05-19T14:51:08.139Z,15.48
2019-05-19T14:53:40.396Z,14.77
2019-05-19T14:56:09.883Z,12.60
2019-05-19T14:58:39.454Z,12.90
2019-05-19T15:01:08.924Z,14.27
2019-05-19T15:03:38.422Z,14.87
2019-05-19T15:06:08.087Z,12.68
2019-05-19T15:08:37.613Z,12.57
2019-05-19T15:11:08.924Z,13.05
2019-05-19T15:13:38.423Z,13.30
2019-05-19T15:16:07.922Z,13.60
2019-05-19T15:18:37.432Z,12.98
2019-05-19T15:21:06.968Z,13.45
2019-05-19T15:23:36.437Z,14.05
2019-05-19T15:26:05.887Z,15.08
2019-05-19T15:28:35.348Z,15.98
2019-05-19T15:31:07.893Z,17.57
2019-05-19T15:33:38.781Z,17.48
2019-05-19T15:36:09.755Z,17.37
2019-05-19T15:38:39.258Z,19.43
2019-05-19T15:41:08.746Z,19.98
2019-05-19T15:43:38.287Z,20.23
2019-05-19T15:46:07.791Z,21.25
2019-05-19T15:48:37.267Z,20.23
2019-05-19T15:51:06.787Z,22.42
2019-05-19T15:53:36.292Z,24.27
2019-05-19T15:56:05.797Z,26.07
2019-05-19T15:58:35.301Z,24.98
2019-05-19T16:01:04.879Z,26.87
2019-05-19T16:03:34.535Z,25.70
2019-05-19T16:06:04.089Z,25.85
2019-05-19T16:08:33.633Z,26.60
2019-05-19T16:11:03.151Z,27.55
2019-05-19T16:13:32.681Z,29.07
2019-05-19T16:16:02.137Z,31.75
2019-05-19T16:18:31.609Z,32.90
2019-05-19T16:21:01.097Z,34.27
2019-05-19T16:23:30.621Z,35.03
2019-05-19T16:26:00.083Z,34.83
2019-05-19T16:28:31.076Z,35.37
2019-05-19T16:31:00.670Z,36.68
2019-05-19T16:33:30.133Z,37.33
2019-05-19T16:35:59.576Z,36.63
2019-05-19T16:38:29.040Z,37.90
2019-05-19T16:40:58.555Z,37.90
2019-05-19T16:43:28.062Z,39.67
2019-05-19T16:45:57.593Z,38.35
2019-05-19T16:48:27.127Z,40.57
2019-05-19T16:50:56.698Z,38.75
2019-05-19T16:53:26.237Z,39.37
2019-05-19T16:55:55.935Z,41.15
2019-05-19T16:58:25.420Z,40.50
2019-05-19T17:00:55.002Z,40.05
2019-05-19T17:03:24.478Z,38.55
2019-05-19T17:05:55.139Z,40.25
2019-05-19T17:08:24.753Z,41.83
2019-05-19T17:10:54.767Z,39.90
2019-05-19T17:13:24.337Z,41.80
2019-05-19T17:15:53.986Z,41.48
2019-05-19T17:18:23.438Z,41.53
2019-05-19T17:20:52.934Z,41.65
2019-05-19T17:23:22.438Z,40.30
2019-05-19T17:25:52.014Z,42.98
2019-05-19T17:28:21.498Z,42.33
2019-05-19T17:30:52.185Z,40.12
2019-05-19T17:33:21.672Z,40.77
2019-05-19T17:35:51.504Z,41.63
2019-05-19T17:38:22.608Z,38.93
2019-05-19T17:40:53.404Z,40.65
2019-05-19T17:43:22.894Z,38.20
2019-05-19T17:45:52.398Z,37.85
2019-05-19T17:48:26.535Z,35.37
2019-05-19T17:50:54.667Z,33.28
2019-05-19T17:53:24.189Z,16.05
2019-05-19T17:55:54.515Z,16.57
2019-05-19T18:00:53.031Z,5.00
2019-05-19T18:03:24.280Z,3.42
2019-05-19T18:05:53.827Z,3.10
2019-05-19T18:08:23.300Z,2.98
2019-05-19T18:10:52.779Z,3.33
2019-05-19T18:13:22.462Z,3.42
2019-05-19T18:15:51.945Z,3.50
2019-05-19T18:18:21.465Z,3.70
2019-05-19T18:20:50.951Z,3.37
2019-05-19T18:23:20.398Z,3.60
2019-05-19T18:25:49.867Z,3.40
2019-05-19T18:28:20.783Z,3.70
2019-05-19T18:33:18.765Z,3.90
2019-05-19T18:35:48.252Z,3.80
2019-05-19T18:38:17.731Z,3.60
2019-05-19T18:40:47.217Z,3.85
2019-05-19T18:43:16.645Z,3.43
2019-05-19T18:45:46.210Z,3.85
2019-05-19T18:48:16.124Z,3.67
2019-05-19T18:50:45.707Z,3.98
2019-05-19T18:53:15.162Z,3.70
2019-05-19T18:55:44.678Z,3.72
2019-05-19T18:58:14.167Z,3.30
2019-05-19T19:00:43.904Z,3.30
2019-05-19T19:03:13.415Z,3.20
2019-05-19T19:05:42.887Z,3.20
2019-05-19T19:08:12.359Z,2.83
2019-05-19T19:10:41.855Z,3.20
2019-05-19T19:13:11.366Z,3.00
2019-05-19T19:15:40.816Z,3.05
2019-05-19T19:18:10.537Z,3.65
2019-05-19T19:20:40.208Z,3.35
2019-05-19T19:23:09.671Z,3.53
2019-05-19T19:25:39.167Z,3.27
2019-05-19T19:28:08.626Z,4.12
2019-05-19T19:30:38.251Z,4.28
2019-05-19T19:33:07.940Z,3.97
2019-05-19T19:35:39.751Z,4.08
2019-05-19T19:38:10.452Z,4.20
2019-05-19T19:40:39.897Z,4.05
2019-05-19T19:43:09.474Z,4.17
2019-05-19T19:45:39.004Z,4.87
2019-05-19T19:48:08.565Z,5.10
2019-05-19T19:50:41.295Z,4.72
2019-05-19T19:53:10.844Z,5.55
2019-05-19T19:55:40.322Z,5.25
2019-05-19T19:58:09.907Z,6.20
2019-05-19T20:00:41.383Z,6.40
2019-05-19T20:03:10.956Z,6.90
2019-05-19T20:05:41.011Z,7.10
2019-05-19T20:08:10.546Z,10.00
2019-05-19T20:10:40.121Z,11.38
2019-05-19T20:13:09.623Z,14.85
2019-05-19T20:15:40.744Z,16.10
2019-05-19T20:18:10.409Z,16.42
2019-05-19T20:20:39.968Z,19.98
2019-05-19T20:23:10.456Z,22.02
2019-05-19T20:25:39.962Z,21.77
2019-05-19T20:28:09.484Z,28.55
2019-05-19T20:30:39.012Z,25.55
2019-05-19T20:33:08.505Z,28.75
2019-05-19T20:35:37.996Z,28.47
2019-05-19T20:38:07.590Z,31.10
2019-05-19T20:40:37.021Z,31.40
2019-05-19T20:43:06.580Z,33.95
2019-05-19T20:45:35.983Z,32.93
2019-05-19T20:48:06.570Z,32.10
2019-05-19T20:50:36.101Z,32.95
2019-05-19T20:53:05.611Z,31.52
2019-05-19T20:55:35.217Z,32.38
2019-05-19T20:58:04.842Z,32.05
2019-05-19T21:00:49.114Z,33.25
2019-05-19T21:03:05.496Z,35.70
2019-05-19T21:05:35.100Z,32.35
2019-05-19T21:08:04.590Z,31.75
2019-05-19T21:10:34.605Z,33.05
2019-05-19T21:13:04.164Z,35.00
2019-05-19T21:15:33.602Z,32.93
2019-05-19T21:18:03.109Z,35.20
2019-05-19T21:20:32.666Z,35.17
2019-05-19T21:23:02.260Z,34.50
2019-05-19T21:25:31.705Z,32.25
2019-05-19T21:28:01.109Z,33.48
2019-05-19T21:30:30.626Z,31.45
2019-05-19T21:33:00.215Z,29.80
2019-05-19T21:35:29.747Z,33.58
2019-05-19T21:37:59.408Z,33.50
2019-05-19T21:40:28.966Z,30.85
2019-05-19T21:42:58.488Z,33.70
2019-05-19T21:45:27.938Z,33.13
2019-05-19T21:47:58.533Z,31.77
2019-05-19T21:50:27.956Z,35.25
2019-05-19T21:52:57.457Z,33.70
2019-05-19T21:55:26.981Z,31.55
2019-05-19T21:57:56.476Z,34.40
2019-05-19T22:00:27.987Z,32.60
2019-05-19T22:02:58.741Z,33.58
2019-05-19T22:05:28.343Z,32.58
2019-05-19T22:08:02.323Z,34.03
2019-05-19T22:10:31.839Z,31.80
2019-05-19T22:13:01.461Z,34.53
2019-05-19T22:15:30.970Z,33.38
2019-05-19T22:18:00.393Z,34.27
2019-05-19T22:20:29.903Z,33.60
2019-05-19T22:22:59.463Z,35.20
2019-05-19T22:25:30.175Z,31.82
2019-05-19T22:27:59.638Z,33.25
2019-05-19T22:30:29.130Z,31.35
2019-05-19T22:32:58.634Z,29.95
2019-05-19T22:35:28.145Z,34.85
2019-05-19T22:37:57.754Z,33.02
2019-05-19T22:40:28.397Z,33.25
2019-05-19T22:42:57.899Z,31.23
2019-05-19T22:45:27.376Z,32.00
2019-05-19T22:47:56.885Z,31.97
2019-05-19T22:50:26.372Z,31.68
2019-05-19T22:52:55.934Z,29.73
2019-05-19T22:55:25.490Z,34.15
2019-05-19T22:57:55.025Z,32.53
2019-05-19T23:00:25.578Z,30.82
2019-05-19T23:02:55.081Z,30.00
2019-05-19T23:05:24.670Z,27.85
2019-05-19T23:07:54.182Z,28.70
2019-05-19T23:10:24.290Z,28.80
2019-05-19T23:12:53.795Z,29.87
2019-05-19T23:15:24.910Z,30.12
2019-05-19T23:17:54.593Z,31.07
2019-05-19T23:20:24.209Z,28.35
2019-05-19T23:22:54.607Z,28.32
2019-05-19T23:25:24.087Z,28.20
2019-05-19T23:27:53.666Z,28.47
2019-05-19T23:30:23.259Z,28.23
2019-05-19T23:32:52.754Z,27.07
2019-05-19T23:35:24.258Z,28.17
2019-05-19T23:37:53.760Z,28.50
2019-05-19T23:40:23.371Z,27.45
2019-05-19T23:42:53.944Z,28.05
2019-05-19T23:45:23.404Z,27.77
2019-05-19T23:47:52.901Z,28.80
2019-05-19T23:50:22.385Z,31.33
2019-05-19T23:52:51.897Z,29.40
2019-05-19T23:55:25.178Z,25.08
2019-05-19T23:57:54.685Z,27.95
